Palmhurst, Texas
Current Conditions -  °F | °C
As of 12:53 PM on Thursday 23 Oct 2014 (Local Time) from KMFE Reporting Station
Clear Clear  
Wind Chill: 83°   Ceiling: Unl
Heat Index: 85°   Visibility: 10mi
Dew Point: 66°   Wind: 5mph
Humidity: 56%   Direction: 350°N
Pressure: 30.09"   Gusts: NA
Location:  26.2155°N, 98.325°W
Report Text: KMFE 231753Z 35004KT 10SM CLR 28/19 A3009 RMK AO2 SLP188 T02830189 10283 20211 58003
Loading
Personal Weather Stations






























Interactive Weather Map New forecast layout! Learn more

10-Day Weather Forecast

Advertisements
Track Severe Weather on mobile